sensor_id;sensor_type;location;lat;lon;timestamp;temperature;humidity
4187;DHT22;2107;52.306;10.484;2023-01-10T00:01:41;5.70;99.90
4187;DHT22;2107;52.306;10.484;2023-01-10T00:04:08;5.70;99.90
4187;DHT22;2107;52.306;10.484;2023-01-10T00:06:35;5.60;99.90
4187;DHT22;2107;52.306;10.484;2023-01-10T00:09:02;5.50;99.90
4187;DHT22;2107;52.306;10.484;2023-01-10T00:11:29;5.40;99.90
4187;DHT22;2107;52.306;10.484;2023-01-10T00:14:15;5.40;99.90
4187;DHT22;2107;52.306;10.484;2023-01-10T00:16:42;5.30;99.90
4187;DHT22;2107;52.306;10.484;2023-01-10T00:19:08;5.30;99.90
4187;DHT22;2107;52.306;10.484;2023-01-10T00:21:35;5.30;99.90
4187;DHT22;2107;52.306;10.484;2023-01-10T00:24:04;5.40;99.90
4187;DHT22;2107;52.306;10.484;2023-01-10T00:26:42;5.40;99.90
4187;DHT22;2107;52.306;10.484;2023-01-10T00:29:12;5.60;99.90
4187;DHT22;2107;52.306;10.484;2023-01-10T00:31:40;5.50;99.90
4187;DHT22;2107;52.306;10.484;2023-01-10T00:34:07;5.50;99.90
4187;DHT22;2107;52.306;10.484;2023-01-10T00:36:34;5.60;99.90
4187;DHT22;2107;52.306;10.484;2023-01-10T00:39:01;5.60;99.90
4187;DHT22;2107;52.306;10.484;2023-01-10T00:41:32;5.70;99.90
4187;DHT22;2107;52.306;10.484;2023-01-10T00:44:16;5.70;99.90
4187;DHT22;2107;52.306;10.484;2023-01-10T00:46:45;5.70;99.90
4187;DHT22;2107;52.306;10.484;2023-01-10T00:49:11;5.80;99.90
4187;DHT22;2107;52.306;10.484;2023-01-10T00:51:41;5.70;99.90
4187;DHT22;2107;52.306;10.484;2023-01-10T00:54:08;5.70;99.90
4187;DHT22;2107;52.306;10.484;2023-01-10T00:56:35;5.70;99.90
4187;DHT22;2107;52.306;10.484;2023-01-10T00:59:02;5.70;99.90
4187;DHT22;2107;52.306;10.484;2023-01-10T01:01:29;5.70;99.90
4187;DHT22;2107;52.306;10.484;2023-01-10T01:03:57;5.70;99.90
4187;DHT22;2107;52.306;10.484;2023-01-10T01:06:24;5.60;99.90
4187;DHT22;2107;52.306;10.484;2023-01-10T01:08:51;5.70;99.90
4187;DHT22;2107;52.306;10.484;2023-01-10T01:11:18;5.70;99.90
4187;DHT22;2107;52.306;10.484;2023-01-10T01:13:44;5.80;99.90
4187;DHT22;2107;52.306;10.484;2023-01-10T01:16:11;5.80;99.90
4187;DHT22;2107;52.306;10.484;2023-01-10T01:18:38;5.70;99.90
4187;DHT22;2107;52.306;10.484;2023-01-10T01:21:07;5.70;99.90
4187;DHT22;2107;52.306;10.484;2023-01-10T01:23:34;5.80;99.90
4187;DHT22;2107;52.306;10.484;2023-01-10T01:26:01;5.80;99.90
4187;DHT22;2107;52.306;10.484;2023-01-10T01:28:28;5.80;99.90
4187;DHT22;2107;52.306;10.484;2023-01-10T01:30:55;5.90;99.90
4187;DHT22;2107;52.306;10.484;2023-01-10T01:33:22;5.90;99.90
4187;DHT22;2107;52.306;10.484;2023-01-10T01:35:49;5.90;99.90
4187;DHT22;2107;52.306;10.484;2023-01-10T01:38:18;6.00;99.90
4187;DHT22;2107;52.306;10.484;2023-01-10T01:40:44;5.90;99.90
4187;DHT22;2107;52.306;10.484;2023-01-10T01:43:22;5.90;99.90
4187;DHT22;2107;52.306;10.484;2023-01-10T01:45:49;5.90;99.90
4187;DHT22;2107;52.306;10.484;2023-01-10T01:48:27;5.90;99.90
4187;DHT22;2107;52.306;10.484;2023-01-10T01:50:59;6.00;99.90
4187;DHT22;2107;52.306;10.484;2023-01-10T01:53:36;6.00;99.90
4187;DHT22;2107;52.306;10.484;2023-01-10T01:56:08;6.00;99.90
4187;DHT22;2107;52.306;10.484;2023-01-10T01:58:43;6.00;99.90
4187;DHT22;2107;52.306;10.484;2023-01-10T02:01:12;5.90;99.90
4187;DHT22;2107;52.306;10.484;2023-01-10T02:03:41;5.90;99.90
4187;DHT22;2107;52.306;10.484;2023-01-10T02:06:08;5.90;99.90
4187;DHT22;2107;52.306;10.484;2023-01-10T02:08:38;5.90;99.90
4187;DHT22;2107;52.306;10.484;2023-01-10T02:11:09;5.90;99.90
4187;DHT22;2107;52.306;10.484;2023-01-10T02:13:37;5.90;99.90
4187;DHT22;2107;52.306;10.484;2023-01-10T02:16:06;5.90;99.90
4187;DHT22;2107;52.306;10.484;2023-01-10T02:18:33;6.00;99.90
4187;DHT22;2107;52.306;10.484;2023-01-10T02:21:15;5.90;99.90
4187;DHT22;2107;52.306;10.484;2023-01-10T02:27:04;5.90;99.90
4187;DHT22;2107;52.306;10.484;2023-01-10T02:32:48;5.90;99.90
4187;DHT22;2107;52.306;10.484;2023-01-10T02:35:31;5.80;99.90
4187;DHT22;2107;52.306;10.484;2023-01-10T02:38:07;5.90;99.90
4187;DHT22;2107;52.306;10.484;2023-01-10T02:40:42;5.90;99.90
4187;DHT22;2107;52.306;10.484;2023-01-10T02:43:13;5.90;99.90
4187;DHT22;2107;52.306;10.484;2023-01-10T02:45:46;5.80;99.90
4187;DHT22;2107;52.306;10.484;2023-01-10T02:48:17;5.80;99.90
4187;DHT22;2107;52.306;10.484;2023-01-10T02:50:53;5.80;99.90
4187;DHT22;2107;52.306;10.484;2023-01-10T02:53:25;5.80;99.90
4187;DHT22;2107;52.306;10.484;2023-01-10T02:58:58;5.90;99.90
4187;DHT22;2107;52.306;10.484;2023-01-10T03:01:36;5.80;99.90
4187;DHT22;2107;52.306;10.484;2023-01-10T03:04:12;5.80;99.90
4187;DHT22;2107;52.306;10.484;2023-01-10T03:06:50;5.90;99.90
4187;DHT22;2107;52.306;10.484;2023-01-10T03:09:23;6.10;99.90
4187;DHT22;2107;52.306;10.484;2023-01-10T03:11:56;5.90;99.90
4187;DHT22;2107;52.306;10.484;2023-01-10T03:14:28;5.90;99.90
4187;DHT22;2107;52.306;10.484;2023-01-10T03:16:59;5.90;99.90
4187;DHT22;2107;52.306;10.484;2023-01-10T03:19:30;6.00;99.90
4187;DHT22;2107;52.306;10.484;2023-01-10T03:22:00;6.00;99.90
4187;DHT22;2107;52.306;10.484;2023-01-10T03:24:32;6.00;99.90
4187;DHT22;2107;52.306;10.484;2023-01-10T03:27:04;6.00;99.90
4187;DHT22;2107;52.306;10.484;2023-01-10T03:29:36;6.00;99.90
4187;DHT22;2107;52.306;10.484;2023-01-10T03:32:09;6.00;99.90
4187;DHT22;2107;52.306;10.484;2023-01-10T03:34:39;5.90;99.90
4187;DHT22;2107;52.306;10.484;2023-01-10T03:37:12;5.90;99.90
4187;DHT22;2107;52.306;10.484;2023-01-10T03:39:43;5.80;99.90
4187;DHT22;2107;52.306;10.484;2023-01-10T03:42:17;5.70;99.90
4187;DHT22;2107;52.306;10.484;2023-01-10T03:44:52;5.70;99.90
4187;DHT22;2107;52.306;10.484;2023-01-10T03:47:23;5.60;99.90
4187;DHT22;2107;52.306;10.484;2023-01-10T03:49:53;5.60;99.90
4187;DHT22;2107;52.306;10.484;2023-01-10T03:52:22;5.50;99.90
4187;DHT22;2107;52.306;10.484;2023-01-10T03:54:50;5.40;99.90
4187;DHT22;2107;52.306;10.484;2023-01-10T03:57:20;5.40;99.90
4187;DHT22;2107;52.306;10.484;2023-01-10T03:59:49;5.40;99.90
4187;DHT22;2107;52.306;10.484;2023-01-10T04:02:17;5.40;99.90
4187;DHT22;2107;52.306;10.484;2023-01-10T04:04:44;5.40;99.90
4187;DHT22;2107;52.306;10.484;2023-01-10T04:07:12;5.40;99.90
4187;DHT22;2107;52.306;10.484;2023-01-10T04:09:39;5.40;99.90
4187;DHT22;2107;52.306;10.484;2023-01-10T04:12:06;5.50;99.90
4187;DHT22;2107;52.306;10.484;2023-01-10T04:14:33;5.50;99.90
4187;DHT22;2107;52.306;10.484;2023-01-10T04:17:00;5.50;99.90
4187;DHT22;2107;52.306;10.484;2023-01-10T04:19:26;5.60;99.90
4187;DHT22;2107;52.306;10.484;2023-01-10T04:21:53;5.50;99.90
4187;DHT22;2107;52.306;10.484;2023-01-10T04:24:22;5.50;99.90
4187;DHT22;2107;52.306;10.484;2023-01-10T04:26:49;5.50;99.90
4187;DHT22;2107;52.306;10.484;2023-01-10T04:29:15;5.60;99.90
4187;DHT22;2107;52.306;10.484;2023-01-10T04:31:42;5.60;99.90
4187;DHT22;2107;52.306;10.484;2023-01-10T04:34:09;5.50;99.90
4187;DHT22;2107;52.306;10.484;2023-01-10T04:36:36;5.60;99.90
4187;DHT22;2107;52.306;10.484;2023-01-10T04:39:03;5.60;99.90
4187;DHT22;2107;52.306;10.484;2023-01-10T04:41:31;5.60;99.90
4187;DHT22;2107;52.306;10.484;2023-01-10T04:43:58;5.60;99.90
4187;DHT22;2107;52.306;10.484;2023-01-10T04:46:25;5.50;99.90
4187;DHT22;2107;52.306;10.484;2023-01-10T04:48:52;5.50;99.90
4187;DHT22;2107;52.306;10.484;2023-01-10T04:51:18;5.30;99.90
4187;DHT22;2107;52.306;10.484;2023-01-10T04:53:45;5.30;99.90
4187;DHT22;2107;52.306;10.484;2023-01-10T04:56:15;5.30;99.90
4187;DHT22;2107;52.306;10.484;2023-01-10T04:58:44;5.20;99.90
4187;DHT22;2107;52.306;10.484;2023-01-10T05:01:13;5.10;99.90
4187;DHT22;2107;52.306;10.484;2023-01-10T05:03:41;5.20;99.90
4187;DHT22;2107;52.306;10.484;2023-01-10T05:06:08;5.30;99.90
4187;DHT22;2107;52.306;10.484;2023-01-10T05:08:35;5.20;99.90
4187;DHT22;2107;52.306;10.484;2023-01-10T05:11:02;5.30;99.90
4187;DHT22;2107;52.306;10.484;2023-01-10T05:13:29;5.30;99.90
4187;DHT22;2107;52.306;10.484;2023-01-10T05:15:57;5.30;99.90
4187;DHT22;2107;52.306;10.484;2023-01-10T05:18:25;5.40;99.90
4187;DHT22;2107;52.306;10.484;2023-01-10T05:20:52;5.30;99.90
4187;DHT22;2107;52.306;10.484;2023-01-10T05:23:19;5.30;99.90
4187;DHT22;2107;52.306;10.484;2023-01-10T05:25:46;5.30;99.90
4187;DHT22;2107;52.306;10.484;2023-01-10T05:28:12;5.30;99.90
4187;DHT22;2107;52.306;10.484;2023-01-10T05:30:39;5.30;99.90
4187;DHT22;2107;52.306;10.484;2023-01-10T05:33:07;5.40;99.90
4187;DHT22;2107;52.306;10.484;2023-01-10T05:35:34;5.40;99.90
4187;DHT22;2107;52.306;10.484;2023-01-10T05:38:01;5.40;99.90
4187;DHT22;2107;52.306;10.484;2023-01-10T05:40:28;5.40;99.90
4187;DHT22;2107;52.306;10.484;2023-01-10T05:42:55;5.30;99.90
4187;DHT22;2107;52.306;10.484;2023-01-10T05:45:22;5.20;99.90
4187;DHT22;2107;52.306;10.484;2023-01-10T05:47:49;5.10;99.90
4187;DHT22;2107;52.306;10.484;2023-01-10T05:50:17;5.00;99.90
4187;DHT22;2107;52.306;10.484;2023-01-10T05:52:44;5.00;99.90
4187;DHT22;2107;52.306;10.484;2023-01-10T05:55:11;4.90;99.90
4187;DHT22;2107;52.306;10.484;2023-01-10T05:57:38;4.90;99.90
4187;DHT22;2107;52.306;10.484;2023-01-10T06:00:06;4.90;99.90
4187;DHT22;2107;52.306;10.484;2023-01-10T06:02:33;4.90;99.90
4187;DHT22;2107;52.306;10.484;2023-01-10T06:05:00;4.90;99.90
4187;DHT22;2107;52.306;10.484;2023-01-10T06:07:28;4.90;99.90
4187;DHT22;2107;52.306;10.484;2023-01-10T06:09:56;4.90;99.90
4187;DHT22;2107;52.306;10.484;2023-01-10T06:12:23;4.80;99.90
4187;DHT22;2107;52.306;10.484;2023-01-10T06:14:50;4.70;99.90
4187;DHT22;2107;52.306;10.484;2023-01-10T06:17:17;4.60;99.90
4187;DHT22;2107;52.306;10.484;2023-01-10T06:19:43;4.60;99.90
4187;DHT22;2107;52.306;10.484;2023-01-10T06:22:10;4.50;99.90
4187;DHT22;2107;52.306;10.484;2023-01-10T06:24:38;4.50;99.90
4187;DHT22;2107;52.306;10.484;2023-01-10T06:27:06;4.50;99.90
4187;DHT22;2107;52.306;10.484;2023-01-10T06:29:33;4.50;99.90
4187;DHT22;2107;52.306;10.484;2023-01-10T06:32:00;4.60;99.90
4187;DHT22;2107;52.306;10.484;2023-01-10T06:34:27;4.50;99.90
4187;DHT22;2107;52.306;10.484;2023-01-10T06:36:54;4.50;99.90
4187;DHT22;2107;52.306;10.484;2023-01-10T06:39:21;4.50;99.90
4187;DHT22;2107;52.306;10.484;2023-01-10T06:41:49;4.50;99.90
4187;DHT22;2107;52.306;10.484;2023-01-10T06:44:16;4.50;99.90
4187;DHT22;2107;52.306;10.484;2023-01-10T06:46:42;4.50;99.90
4187;DHT22;2107;52.306;10.484;2023-01-10T06:49:09;4.50;99.90
4187;DHT22;2107;52.306;10.484;2023-01-10T06:51:36;4.60;99.90
4187;DHT22;2107;52.306;10.484;2023-01-10T06:54:03;4.60;99.90
4187;DHT22;2107;52.306;10.484;2023-01-10T06:56:30;4.60;99.90
4187;DHT22;2107;52.306;10.484;2023-01-10T06:58:58;4.60;99.90
4187;DHT22;2107;52.306;10.484;2023-01-10T07:01:25;4.70;99.90
4187;DHT22;2107;52.306;10.484;2023-01-10T07:03:52;4.70;99.90
4187;DHT22;2107;52.306;10.484;2023-01-10T07:06:19;4.80;99.90
4187;DHT22;2107;52.306;10.484;2023-01-10T07:08:46;4.80;99.90
4187;DHT22;2107;52.306;10.484;2023-01-10T07:11:14;4.80;99.90
4187;DHT22;2107;52.306;10.484;2023-01-10T07:13:41;4.90;99.90
4187;DHT22;2107;52.306;10.484;2023-01-10T07:16:11;4.90;99.90
4187;DHT22;2107;52.306;10.484;2023-01-10T07:18:40;4.90;99.90
4187;DHT22;2107;52.306;10.484;2023-01-10T07:21:08;4.80;99.90
4187;DHT22;2107;52.306;10.484;2023-01-10T07:23:35;4.80;99.90
4187;DHT22;2107;52.306;10.484;2023-01-10T07:26:04;4.80;99.90
4187;DHT22;2107;52.306;10.484;2023-01-10T07:28:31;4.80;99.90
4187;DHT22;2107;52.306;10.484;2023-01-10T07:30:59;4.70;99.90
4187;DHT22;2107;52.306;10.484;2023-01-10T07:33:27;4.70;99.90
4187;DHT22;2107;52.306;10.484;2023-01-10T07:35:54;4.60;99.90
4187;DHT22;2107;52.306;10.484;2023-01-10T07:38:21;4.50;99.90
4187;DHT22;2107;52.306;10.484;2023-01-10T07:40:48;4.50;99.90
4187;DHT22;2107;52.306;10.484;2023-01-10T07:43:15;4.40;99.90
4187;DHT22;2107;52.306;10.484;2023-01-10T07:45:42;4.40;99.90
4187;DHT22;2107;52.306;10.484;2023-01-10T07:48:09;4.40;99.90
4187;DHT22;2107;52.306;10.484;2023-01-10T07:50:37;4.40;99.90
4187;DHT22;2107;52.306;10.484;2023-01-10T07:53:06;4.40;99.90
4187;DHT22;2107;52.306;10.484;2023-01-10T07:55:34;4.40;99.90
4187;DHT22;2107;52.306;10.484;2023-01-10T07:58:03;4.40;99.90
4187;DHT22;2107;52.306;10.484;2023-01-10T08:00:31;4.50;99.90
4187;DHT22;2107;52.306;10.484;2023-01-10T08:02:58;4.60;99.90
4187;DHT22;2107;52.306;10.484;2023-01-10T08:05:25;4.70;99.90
4187;DHT22;2107;52.306;10.484;2023-01-10T08:07:53;4.70;99.90
4187;DHT22;2107;52.306;10.484;2023-01-10T08:10:24;4.80;99.90
4187;DHT22;2107;52.306;10.484;2023-01-10T08:12:51;4.90;99.90
4187;DHT22;2107;52.306;10.484;2023-01-10T08:15:18;4.90;99.90
4187;DHT22;2107;52.306;10.484;2023-01-10T08:17:45;4.90;99.90
4187;DHT22;2107;52.306;10.484;2023-01-10T08:20:12;5.10;99.90
4187;DHT22;2107;52.306;10.484;2023-01-10T08:22:38;5.00;99.90
4187;DHT22;2107;52.306;10.484;2023-01-10T08:25:07;5.10;99.90
4187;DHT22;2107;52.306;10.484;2023-01-10T08:27:34;5.10;99.90
4187;DHT22;2107;52.306;10.484;2023-01-10T08:30:02;5.10;99.90
4187;DHT22;2107;52.306;10.484;2023-01-10T08:32:29;5.20;99.90
4187;DHT22;2107;52.306;10.484;2023-01-10T08:34:56;5.30;99.90
4187;DHT22;2107;52.306;10.484;2023-01-10T08:37:22;5.40;99.90
4187;DHT22;2107;52.306;10.484;2023-01-10T08:39:49;5.50;99.90
4187;DHT22;2107;52.306;10.484;2023-01-10T08:42:17;5.50;99.90
4187;DHT22;2107;52.306;10.484;2023-01-10T08:44:44;5.60;99.90
4187;DHT22;2107;52.306;10.484;2023-01-10T08:47:11;5.60;99.90
4187;DHT22;2107;52.306;10.484;2023-01-10T08:49:38;5.50;99.90
4187;DHT22;2107;52.306;10.484;2023-01-10T08:52:05;5.50;99.90
4187;DHT22;2107;52.306;10.484;2023-01-10T08:54:32;5.60;99.90
4187;DHT22;2107;52.306;10.484;2023-01-10T08:56:59;5.70;99.90
4187;DHT22;2107;52.306;10.484;2023-01-10T08:59:27;5.80;99.90
4187;DHT22;2107;52.306;10.484;2023-01-10T09:01:54;5.90;99.90
4187;DHT22;2107;52.306;10.484;2023-01-10T09:04:23;5.90;99.90
4187;DHT22;2107;52.306;10.484;2023-01-10T09:06:50;5.90;99.90
4187;DHT22;2107;52.306;10.484;2023-01-10T09:09:17;5.80;99.90
4187;DHT22;2107;52.306;10.484;2023-01-10T09:11:44;5.80;99.90
4187;DHT22;2107;52.306;10.484;2023-01-10T09:14:11;5.80;99.90
4187;DHT22;2107;52.306;10.484;2023-01-10T09:16:39;5.80;99.90
4187;DHT22;2107;52.306;10.484;2023-01-10T09:19:06;5.80;99.90
4187;DHT22;2107;52.306;10.484;2023-01-10T09:21:33;5.90;99.90
4187;DHT22;2107;52.306;10.484;2023-01-10T09:24:00;5.90;99.90
4187;DHT22;2107;52.306;10.484;2023-01-10T09:26:27;5.90;99.90
4187;DHT22;2107;52.306;10.484;2023-01-10T09:28:53;5.90;99.90
4187;DHT22;2107;52.306;10.484;2023-01-10T09:31:20;6.00;99.90
4187;DHT22;2107;52.306;10.484;2023-01-10T09:33:48;6.10;99.90
4187;DHT22;2107;52.306;10.484;2023-01-10T09:36:15;6.20;99.90
4187;DHT22;2107;52.306;10.484;2023-01-10T09:38:42;6.30;99.90
4187;DHT22;2107;52.306;10.484;2023-01-10T09:41:33;6.40;99.90
4187;DHT22;2107;52.306;10.484;2023-01-10T09:44:13;6.40;99.90
4187;DHT22;2107;52.306;10.484;2023-01-10T09:46:50;6.50;99.90
4187;DHT22;2107;52.306;10.484;2023-01-10T09:49:25;6.70;99.90
4187;DHT22;2107;52.306;10.484;2023-01-10T09:51:56;6.80;99.90
4187;DHT22;2107;52.306;10.484;2023-01-10T09:54:27;6.90;99.90
4187;DHT22;2107;52.306;10.484;2023-01-10T09:56:55;7.10;99.90
4187;DHT22;2107;52.306;10.484;2023-01-10T09:59:30;6.90;99.90
4187;DHT22;2107;52.306;10.484;2023-01-10T10:02:03;7.00;99.90
4187;DHT22;2107;52.306;10.484;2023-01-10T10:04:35;7.00;99.90
4187;DHT22;2107;52.306;10.484;2023-01-10T10:07:04;7.00;99.90
4187;DHT22;2107;52.306;10.484;2023-01-10T10:09:33;7.00;99.90
4187;DHT22;2107;52.306;10.484;2023-01-10T10:12:10;7.00;99.90
4187;DHT22;2107;52.306;10.484;2023-01-10T10:14:56;7.00;99.90
4187;DHT22;2107;52.306;10.484;2023-01-10T10:17:39;7.00;99.90
4187;DHT22;2107;52.306;10.484;2023-01-10T10:20:25;7.00;99.90
4187;DHT22;2107;52.306;10.484;2023-01-10T10:23:03;7.00;99.90
4187;DHT22;2107;52.306;10.484;2023-01-10T10:25:50;7.10;99.90
4187;DHT22;2107;52.306;10.484;2023-01-10T10:31:20;7.10;99.90
4187;DHT22;2107;52.306;10.484;2023-01-10T10:33:57;7.00;99.90
4187;DHT22;2107;52.306;10.484;2023-01-10T10:36:29;6.90;99.90
4187;DHT22;2107;52.306;10.484;2023-01-10T10:39:00;6.90;99.90
4187;DHT22;2107;52.306;10.484;2023-01-10T10:41:32;7.00;99.90
4187;DHT22;2107;52.306;10.484;2023-01-10T10:44:11;7.10;99.90
4187;DHT22;2107;52.306;10.484;2023-01-10T10:46:41;6.90;99.90
4187;DHT22;2107;52.306;10.484;2023-01-10T10:49:16;6.90;99.90
4187;DHT22;2107;52.306;10.484;2023-01-10T10:51:51;6.90;99.90
4187;DHT22;2107;52.306;10.484;2023-01-10T10:54:18;7.00;99.90
4187;DHT22;2107;52.306;10.484;2023-01-10T10:56:45;7.00;99.90
4187;DHT22;2107;52.306;10.484;2023-01-10T10:59:16;7.10;99.90
4187;DHT22;2107;52.306;10.484;2023-01-10T11:01:44;7.10;99.90
4187;DHT22;2107;52.306;10.484;2023-01-10T11:04:15;7.00;99.90
4187;DHT22;2107;52.306;10.484;2023-01-10T11:06:44;7.00;99.90
4187;DHT22;2107;52.306;10.484;2023-01-10T11:09:15;7.00;99.90
4187;DHT22;2107;52.306;10.484;2023-01-10T11:11:45;7.00;99.90
4187;DHT22;2107;52.306;10.484;2023-01-10T11:14:15;7.00;99.90
4187;DHT22;2107;52.306;10.484;2023-01-10T11:17:18;7.00;99.90
4187;DHT22;2107;52.306;10.484;2023-01-10T11:19:54;7.20;99.90
4187;DHT22;2107;52.306;10.484;2023-01-10T11:22:22;7.30;99.90
4187;DHT22;2107;52.306;10.484;2023-01-10T11:24:53;7.50;99.90
4187;DHT22;2107;52.306;10.484;2023-01-10T11:27:22;7.50;99.90
4187;DHT22;2107;52.306;10.484;2023-01-10T11:29:51;7.50;99.90
4187;DHT22;2107;52.306;10.484;2023-01-10T11:32:21;7.50;99.90
4187;DHT22;2107;52.306;10.484;2023-01-10T11:34:51;7.60;99.90
4187;DHT22;2107;52.306;10.484;2023-01-10T11:37:21;7.40;99.90
4187;DHT22;2107;52.306;10.484;2023-01-10T11:40:17;7.40;99.90
4187;DHT22;2107;52.306;10.484;2023-01-10T11:42:45;7.40;99.90
4187;DHT22;2107;52.306;10.484;2023-01-10T11:45:25;7.30;99.90
4187;DHT22;2107;52.306;10.484;2023-01-10T11:47:55;7.40;99.90
4187;DHT22;2107;52.306;10.484;2023-01-10T11:50:24;7.50;99.90
4187;DHT22;2107;52.306;10.484;2023-01-10T11:52:52;7.50;99.90
4187;DHT22;2107;52.306;10.484;2023-01-10T11:55:23;7.60;99.90
4187;DHT22;2107;52.306;10.484;2023-01-10T11:57:59;7.60;99.90
4187;DHT22;2107;52.306;10.484;2023-01-10T12:00:36;7.80;99.90
4187;DHT22;2107;52.306;10.484;2023-01-10T12:03:18;7.70;99.90
4187;DHT22;2107;52.306;10.484;2023-01-10T12:05:54;8.00;99.90
4187;DHT22;2107;52.306;10.484;2023-01-10T12:08:27;7.90;99.90
4187;DHT22;2107;52.306;10.484;2023-01-10T12:11:01;7.80;99.90
4187;DHT22;2107;52.306;10.484;2023-01-10T12:13:29;7.80;99.90
4187;DHT22;2107;52.306;10.484;2023-01-10T12:16:20;7.80;99.90
4187;DHT22;2107;52.306;10.484;2023-01-10T12:18:48;7.80;99.90
4187;DHT22;2107;52.306;10.484;2023-01-10T12:21:20;7.90;99.90
4187;DHT22;2107;52.306;10.484;2023-01-10T12:23:48;8.00;99.90
4187;DHT22;2107;52.306;10.484;2023-01-10T12:26:17;8.10;99.90
4187;DHT22;2107;52.306;10.484;2023-01-10T12:28:49;7.90;99.90
4187;DHT22;2107;52.306;10.484;2023-01-10T12:31:16;7.90;99.90
4187;DHT22;2107;52.306;10.484;2023-01-10T12:33:46;8.00;99.90
4187;DHT22;2107;52.306;10.484;2023-01-10T12:39:13;8.00;99.90
4187;DHT22;2107;52.306;10.484;2023-01-10T12:42:01;7.80;99.90
4187;DHT22;2107;52.306;10.484;2023-01-10T12:44:50;7.80;99.90
4187;DHT22;2107;52.306;10.484;2023-01-10T12:47:27;7.90;99.90
4187;DHT22;2107;52.306;10.484;2023-01-10T12:49:59;8.00;99.90
4187;DHT22;2107;52.306;10.484;2023-01-10T12:52:40;8.00;99.90
4187;DHT22;2107;52.306;10.484;2023-01-10T12:55:13;7.90;99.90
4187;DHT22;2107;52.306;10.484;2023-01-10T12:57:45;7.90;99.90
4187;DHT22;2107;52.306;10.484;2023-01-10T13:00:19;7.90;99.90
4187;DHT22;2107;52.306;10.484;2023-01-10T13:02:51;7.90;99.90
4187;DHT22;2107;52.306;10.484;2023-01-10T13:05:22;7.80;99.90
4187;DHT22;2107;52.306;10.484;2023-01-10T13:07:52;8.00;99.90
4187;DHT22;2107;52.306;10.484;2023-01-10T13:10:21;8.10;99.90
4187;DHT22;2107;52.306;10.484;2023-01-10T13:12:53;8.20;99.90
4187;DHT22;2107;52.306;10.484;2023-01-10T13:15:26;8.40;99.90
4187;DHT22;2107;52.306;10.484;2023-01-10T13:17:57;8.40;99.90
4187;DHT22;2107;52.306;10.484;2023-01-10T13:20:28;8.20;99.90
4187;DHT22;2107;52.306;10.484;2023-01-10T13:22:57;8.20;99.90
4187;DHT22;2107;52.306;10.484;2023-01-10T13:25:26;8.30;99.90
4187;DHT22;2107;52.306;10.484;2023-01-10T13:28:02;8.10;99.90
4187;DHT22;2107;52.306;10.484;2023-01-10T13:30:32;8.20;99.90
4187;DHT22;2107;52.306;10.484;2023-01-10T13:33:03;8.10;99.90
4187;DHT22;2107;52.306;10.484;2023-01-10T13:35:38;8.20;99.90
4187;DHT22;2107;52.306;10.484;2023-01-10T13:38:13;8.20;99.90
4187;DHT22;2107;52.306;10.484;2023-01-10T13:40:58;8.10;99.90
4187;DHT22;2107;52.306;10.484;2023-01-10T13:43:37;7.80;99.90
4187;DHT22;2107;52.306;10.484;2023-01-10T13:46:38;7.90;99.90
4187;DHT22;2107;52.306;10.484;2023-01-10T13:49:24;7.90;99.90
4187;DHT22;2107;52.306;10.484;2023-01-10T13:52:27;7.90;99.90
4187;DHT22;2107;52.306;10.484;2023-01-10T13:54:55;7.80;99.90
4187;DHT22;2107;52.306;10.484;2023-01-10T13:57:48;7.80;99.90
4187;DHT22;2107;52.306;10.484;2023-01-10T14:00:41;7.80;99.90
4187;DHT22;2107;52.306;10.484;2023-01-10T14:03:51;7.70;99.90
4187;DHT22;2107;52.306;10.484;2023-01-10T14:06:40;7.60;99.90
4187;DHT22;2107;52.306;10.484;2023-01-10T14:09:34;7.60;99.90
4187;DHT22;2107;52.306;10.484;2023-01-10T14:12:04;7.50;99.90
4187;DHT22;2107;52.306;10.484;2023-01-10T14:14:35;7.50;99.90
4187;DHT22;2107;52.306;10.484;2023-01-10T14:17:13;7.50;99.90
4187;DHT22;2107;52.306;10.484;2023-01-10T14:19:42;7.40;99.90
4187;DHT22;2107;52.306;10.484;2023-01-10T14:22:23;7.40;99.90
4187;DHT22;2107;52.306;10.484;2023-01-10T14:24:52;7.40;99.90
4187;DHT22;2107;52.306;10.484;2023-01-10T14:27:20;7.30;99.90
4187;DHT22;2107;52.306;10.484;2023-01-10T14:29:50;7.30;99.90
4187;DHT22;2107;52.306;10.484;2023-01-10T14:32:30;7.30;99.90
4187;DHT22;2107;52.306;10.484;2023-01-10T14:35:00;7.20;99.90
4187;DHT22;2107;52.306;10.484;2023-01-10T14:37:30;7.20;99.90
4187;DHT22;2107;52.306;10.484;2023-01-10T14:40:04;7.10;99.90
4187;DHT22;2107;52.306;10.484;2023-01-10T14:42:31;7.00;99.90
4187;DHT22;2107;52.306;10.484;2023-01-10T14:45:04;7.00;99.90
4187;DHT22;2107;52.306;10.484;2023-01-10T14:47:35;6.80;99.90
4187;DHT22;2107;52.306;10.484;2023-01-10T14:50:04;6.80;99.90
4187;DHT22;2107;52.306;10.484;2023-01-10T14:52:31;6.80;99.90
4187;DHT22;2107;52.306;10.484;2023-01-10T14:55:03;6.80;99.90
4187;DHT22;2107;52.306;10.484;2023-01-10T14:57:31;6.80;99.90
4187;DHT22;2107;52.306;10.484;2023-01-10T15:00:04;6.80;99.90
4187;DHT22;2107;52.306;10.484;2023-01-10T15:02:31;6.70;99.90
4187;DHT22;2107;52.306;10.484;2023-01-10T15:05:02;6.80;99.90
4187;DHT22;2107;52.306;10.484;2023-01-10T15:07:34;6.80;99.90
4187;DHT22;2107;52.306;10.484;2023-01-10T15:10:16;6.70;99.90
4187;DHT22;2107;52.306;10.484;2023-01-10T15:12:43;6.70;99.90
4187;DHT22;2107;52.306;10.484;2023-01-10T15:15:14;6.70;99.90
4187;DHT22;2107;52.306;10.484;2023-01-10T15:17:42;6.70;99.90
4187;DHT22;2107;52.306;10.484;2023-01-10T15:20:14;6.70;99.90
4187;DHT22;2107;52.306;10.484;2023-01-10T15:22:46;6.70;99.90
4187;DHT22;2107;52.306;10.484;2023-01-10T15:25:29;6.70;99.90
4187;DHT22;2107;52.306;10.484;2023-01-10T15:27:57;6.70;99.90
4187;DHT22;2107;52.306;10.484;2023-01-10T15:30:27;6.70;99.90
4187;DHT22;2107;52.306;10.484;2023-01-10T15:32:56;6.70;99.90
4187;DHT22;2107;52.306;10.484;2023-01-10T15:35:27;6.60;99.90
4187;DHT22;2107;52.306;10.484;2023-01-10T15:37:56;6.60;99.90
4187;DHT22;2107;52.306;10.484;2023-01-10T15:40:29;6.60;99.90
4187;DHT22;2107;52.306;10.484;2023-01-10T15:43:10;6.60;99.90
4187;DHT22;2107;52.306;10.484;2023-01-10T15:45:38;6.50;99.90
4187;DHT22;2107;52.306;10.484;2023-01-10T15:48:27;6.50;99.90
4187;DHT22;2107;52.306;10.484;2023-01-10T15:50:57;6.40;99.90
4187;DHT22;2107;52.306;10.484;2023-01-10T15:53:56;6.40;99.90
4187;DHT22;2107;52.306;10.484;2023-01-10T15:56:33;6.30;99.90
4187;DHT22;2107;52.306;10.484;2023-01-10T15:59:01;6.30;99.90
4187;DHT22;2107;52.306;10.484;2023-01-10T16:01:29;6.30;99.90
4187;DHT22;2107;52.306;10.484;2023-01-10T16:03:57;6.30;99.90
4187;DHT22;2107;52.306;10.484;2023-01-10T16:06:29;6.30;99.90
4187;DHT22;2107;52.306;10.484;2023-01-10T16:08:59;6.30;99.90
4187;DHT22;2107;52.306;10.484;2023-01-10T16:11:34;6.20;99.90
4187;DHT22;2107;52.306;10.484;2023-01-10T16:14:19;6.20;99.90
4187;DHT22;2107;52.306;10.484;2023-01-10T16:16:46;6.20;99.90
4187;DHT22;2107;52.306;10.484;2023-01-10T16:19:13;6.10;99.90
4187;DHT22;2107;52.306;10.484;2023-01-10T16:21:44;6.10;99.90
4187;DHT22;2107;52.306;10.484;2023-01-10T16:24:16;6.10;99.90
4187;DHT22;2107;52.306;10.484;2023-01-10T16:26:44;6.10;99.90
4187;DHT22;2107;52.306;10.484;2023-01-10T16:29:11;6.00;99.90
4187;DHT22;2107;52.306;10.484;2023-01-10T16:31:38;6.00;99.90
4187;DHT22;2107;52.306;10.484;2023-01-10T16:34:06;6.00;99.90
4187;DHT22;2107;52.306;10.484;2023-01-10T16:36:32;6.00;99.90
4187;DHT22;2107;52.306;10.484;2023-01-10T16:39:04;6.00;99.90
4187;DHT22;2107;52.306;10.484;2023-01-10T16:41:32;6.00;99.90